sensor_id;sensor_type;location;lat;lon;timestamp;P1;P4;P2;P0;N10;N4;N25;N1;N05;TS
77638;SPS30;66802;52.574;14.398;2023-09-30T00:00:00;7.27;7.27;7.27;6.87;54.88;54.87;54.85;54.68;47.55;0.41
77638;SPS30;66802;52.574;14.398;2023-09-30T03:01:04;3.79;3.64;3.33;2.79;22.27;22.24;22.16;21.73;18.26;0.61
77638;SPS30;66802;52.574;14.398;2023-09-30T03:03:40;3.39;3.28;3.05;2.61;20.87;20.85;20.78;20.45;17.30;0.59
77638;SPS30;66802;52.574;14.398;2023-09-30T03:06:06;4.04;3.88;3.56;2.99;23.86;23.83;23.74;23.28;19.58;0.61
77638;SPS30;66802;52.574;14.398;2023-09-30T03:08:32;3.96;3.79;3.46;2.88;23.00;22.97;22.88;22.42;18.80;0.62
77638;SPS30;66802;52.574;14.398;2023-09-30T03:10:57;4.29;4.11;3.74;3.12;24.91;24.88;24.78;24.27;20.36;0.62
77638;SPS30;66802;52.574;14.398;2023-09-30T03:13:23;4.38;4.17;3.77;3.10;24.75;24.71;24.61;24.05;20.08;0.63
77638;SPS30;66802;52.574;14.398;2023-09-30T03:15:49;4.62;4.37;3.89;3.12;24.95;24.92;24.79;24.14;20.00;0.64
77638;SPS30;66802;52.574;14.398;2023-09-30T03:18:17;4.30;4.08;3.64;2.93;23.40;23.37;23.25;22.66;18.79;0.64
77638;SPS30;66802;52.574;14.398;2023-09-30T03:20:47;4.29;4.10;3.71;3.07;24.50;24.47;24.37;23.84;19.93;0.63
77638;SPS30;66802;52.574;14.398;2023-09-30T03:23:15;4.54;4.31;3.83;3.07;24.55;24.51;24.38;23.75;19.67;0.66
77638;SPS30;66802;52.574;14.398;2023-09-30T03:25:50;4.88;4.62;4.10;3.27;26.11;26.07;25.93;25.23;20.86;0.66
77638;SPS30;66802;52.574;14.398;2023-09-30T03:28:18;4.65;4.39;3.87;3.06;24.46;24.42;24.29;23.60;19.45;0.67
77638;SPS30;66802;52.574;14.398;2023-09-30T03:30:53;5.06;4.74;4.11;3.15;25.19;25.15;24.98;24.15;19.70;0.68
77638;SPS30;66802;52.574;14.398;2023-09-30T03:33:19;5.49;5.11;4.35;3.23;25.83;25.78;25.58;24.60;19.82;0.71
77638;SPS30;66802;52.574;14.398;2023-09-30T03:35:44;4.94;4.60;3.93;2.94;23.48;23.43;23.25;22.38;18.07;0.70
77638;SPS30;66802;52.574;14.398;2023-09-30T03:38:12;5.37;5.02;4.32;3.27;26.12;26.06;25.88;24.97;20.26;0.69
77638;SPS30;66802;52.574;14.398;2023-09-30T03:40:48;5.30;4.94;4.22;3.15;25.19;25.13;24.94;24.01;19.39;0.69
77638;SPS30;66802;52.574;14.398;2023-09-30T03:43:14;5.42;5.07;4.37;3.32;26.52;26.47;26.29;25.37;20.62;0.68
77638;SPS30;66802;52.574;14.398;2023-09-30T03:45:41;5.06;4.74;4.10;3.13;24.99;24.94;24.77;23.93;19.49;0.67
77638;SPS30;66802;52.574;14.398;2023-09-30T03:48:07;4.92;4.59;3.95;2.99;23.91;23.86;23.69;22.86;18.55;0.68
77638;SPS30;66802;52.574;14.398;2023-09-30T03:50:35;5.46;5.08;4.32;3.20;25.59;25.54;25.34;24.36;19.62;0.70
77638;SPS30;66802;52.574;14.398;2023-09-30T03:53:01;5.41;5.06;4.36;3.31;26.48;26.43;26.25;25.34;20.59;0.68
77638;SPS30;66802;52.574;14.398;2023-09-30T03:55:31;5.41;5.09;4.45;3.46;27.63;27.58;27.41;26.56;21.77;0.67
77638;SPS30;66802;52.574;14.398;2023-09-30T03:57:57;4.80;4.56;4.10;3.33;26.58;26.55;26.42;25.78;21.45;0.64
77638;SPS30;66802;52.574;14.398;2023-09-30T04:00:25;5.11;4.87;4.40;3.61;28.81;28.78;28.65;28.00;23.37;0.62
77638;SPS30;66802;52.574;14.398;2023-09-30T04:03:01;5.25;5.00;4.49;3.66;29.25;29.21;29.08;28.39;23.64;0.62
77638;SPS30;66802;52.574;14.398;2023-09-30T04:05:27;4.99;4.73;4.22;3.39;27.09;27.05;26.91;26.22;21.73;0.64
77638;SPS30;66802;52.574;14.398;2023-09-30T04:08:09;5.43;5.12;4.48;3.50;27.97;27.92;27.75;26.92;22.09;0.66
77638;SPS30;66802;52.574;14.398;2023-09-30T04:10:42;5.30;4.99;4.37;3.41;27.24;27.19;27.03;26.21;21.51;0.67
77638;SPS30;66802;52.574;14.398;2023-09-30T04:13:15;5.16;4.86;4.24;3.30;26.37;26.32;26.16;25.36;20.78;0.67
77638;SPS30;66802;52.574;14.398;2023-09-30T04:15:51;4.86;4.58;4.01;3.13;24.99;24.95;24.80;24.05;19.74;0.67
77638;SPS30;66802;52.574;14.398;2023-09-30T04:18:16;5.01;4.71;4.11;3.20;25.57;25.52;25.36;24.58;20.15;0.67
77638;SPS30;66802;52.574;14.398;2023-09-30T04:20:45;4.96;4.65;4.03;3.09;24.70;24.66;24.50;23.69;19.32;0.67
77638;SPS30;66802;52.574;14.398;2023-09-30T04:23:13;5.64;5.31;4.65;3.63;29.04;28.99;28.82;27.95;22.94;0.65
77638;SPS30;66802;52.574;14.398;2023-09-30T04:25:49;5.44;5.12;4.47;3.48;27.81;27.76;27.59;26.74;21.92;0.66
77638;SPS30;66802;52.574;14.398;2023-09-30T04:28:15;5.45;5.14;4.52;3.55;28.41;28.36;28.20;27.38;22.52;0.65
77638;SPS30;66802;52.574;14.398;2023-09-30T04:30:44;5.28;5.00;4.42;3.51;28.05;28.01;27.85;27.09;22.36;0.64
77638;SPS30;66802;52.574;14.398;2023-09-30T04:33:17;5.01;4.73;4.16;3.28;26.20;26.16;26.01;25.26;20.80;0.65
77638;SPS30;66802;52.574;14.398;2023-09-30T04:35:43;5.27;4.98;4.42;3.52;28.14;28.09;27.95;27.19;22.47;0.63
77638;SPS30;66802;52.574;14.398;2023-09-30T04:38:16;5.31;5.03;4.47;3.57;28.55;28.51;28.36;27.60;22.84;0.62
77638;SPS30;66802;52.574;14.398;2023-09-30T04:40:52;5.41;5.12;4.54;3.62;28.92;28.87;28.72;27.95;23.11;0.64
77638;SPS30;66802;52.574;14.398;2023-09-30T04:43:19;5.73;5.39;4.71;3.66;29.26;29.20;29.03;28.13;23.05;0.66
77638;SPS30;66802;52.574;14.398;2023-09-30T04:45:46;6.03;5.65;4.89;3.74;29.93;29.87;29.68;28.69;23.38;0.67
77638;SPS30;66802;52.574;14.398;2023-09-30T04:48:14;6.68;6.21;5.26;3.88;31.04;30.97;30.72;29.51;23.71;0.69
77638;SPS30;66802;52.574;14.398;2023-09-30T04:50:40;6.24;5.89;5.18;4.07;32.51;32.45;32.26;31.32;25.77;0.64
77638;SPS30;66802;52.574;14.398;2023-09-30T04:53:06;5.96;5.62;4.93;3.87;30.93;30.87;30.69;29.79;24.49;0.64
77638;SPS30;66802;52.574;14.398;2023-09-30T04:55:33;5.80;5.45;4.73;3.65;29.19;29.13;28.95;28.02;22.89;0.65
77638;SPS30;66802;52.574;14.398;2023-09-30T04:58:01;5.22;4.92;4.30;3.35;26.80;26.75;26.59;25.78;21.15;0.65
77638;SPS30;66802;52.574;14.398;2023-09-30T05:00:36;6.05;5.68;4.94;3.82;30.51;30.45;30.26;29.29;23.95;0.66
77638;SPS30;66802;52.574;14.398;2023-09-30T05:03:04;5.91;5.54;4.80;3.68;29.45;29.40;29.20;28.24;23.03;0.68
77638;SPS30;66802;52.574;14.398;2023-09-30T05:05:30;5.84;5.48;4.78;3.69;29.51;29.45;29.27;28.34;23.18;0.66
77638;SPS30;66802;52.574;14.398;2023-09-30T05:07:58;5.56;5.25;4.63;3.66;29.23;29.18;29.02;28.20;23.24;0.63
77638;SPS30;66802;52.574;14.398;2023-09-30T05:10:24;5.51;5.20;4.57;3.60;28.80;28.75;28.58;27.76;22.85;0.63
77638;SPS30;66802;52.574;14.398;2023-09-30T05:12:50;5.41;5.08;4.41;3.40;27.17;27.12;26.95;26.08;21.30;0.66
77638;SPS30;66802;52.574;14.398;2023-09-30T05:15:20;5.45;5.12;4.48;3.49;27.88;27.83;27.66;26.81;21.99;0.66
77638;SPS30;66802;52.574;14.398;2023-09-30T05:17:57;6.01;5.69;5.05;4.03;32.24;32.19;32.02;31.17;25.79;0.65
77638;SPS30;66802;52.574;14.398;2023-09-30T05:20:30;6.25;5.86;5.08;3.89;31.13;31.07;30.86;29.84;24.34;0.69
77638;SPS30;66802;52.574;14.398;2023-09-30T05:22:55;6.41;5.97;5.11;3.83;30.61;30.54;30.32;29.20;23.61;0.70
77638;SPS30;66802;52.574;14.398;2023-09-30T05:25:31;6.02;5.66;4.92;3.81;30.42;30.36;30.17;29.21;23.89;0.67
77638;SPS30;66802;52.574;14.398;2023-09-30T05:27:57;5.58;5.25;4.59;3.57;28.52;28.47;28.30;27.43;22.48;0.66
77638;SPS30;66802;52.574;14.398;2023-09-30T05:30:24;6.08;5.71;4.98;3.86;30.88;30.83;30.64;29.67;24.29;0.66
77638;SPS30;66802;52.574;14.398;2023-09-30T05:32:50;6.24;5.88;5.16;4.04;32.30;32.24;32.06;31.10;25.55;0.66
77638;SPS30;66802;52.574;14.398;2023-09-30T05:35:18;5.81;5.50;4.89;3.91;31.23;31.19;31.02;30.20;24.99;0.64
77638;SPS30;66802;52.574;14.398;2023-09-30T05:37:47;5.54;5.23;4.61;3.63;29.04;28.99;28.82;28.00;23.06;0.66
77638;SPS30;66802;52.574;14.398;2023-09-30T05:40:16;5.17;4.91;4.41;3.59;28.69;28.65;28.52;27.83;23.17;0.63
77638;SPS30;66802;52.574;14.398;2023-09-30T05:42:47;5.45;5.19;4.69;3.84;30.67;30.63;30.50;29.80;24.86;0.62
77638;SPS30;66802;52.574;14.398;2023-09-30T05:45:18;5.65;5.39;4.88;4.01;32.04;32.00;31.86;31.15;26.02;0.61
77638;SPS30;66802;52.574;14.398;2023-09-30T05:47:43;5.62;5.35;4.81;3.92;31.34;31.30;31.16;30.42;25.34;0.63
77638;SPS30;66802;52.574;14.398;2023-09-30T05:50:09;5.83;5.54;4.96;4.02;32.13;32.08;31.93;31.15;25.89;0.64
77638;SPS30;66802;52.574;14.398;2023-09-30T05:52:40;5.71;5.41;4.80;3.84;30.66;30.61;30.45;29.64;24.52;0.64
77638;SPS30;66802;52.574;14.398;2023-09-30T05:55:06;5.59;5.28;4.68;3.72;29.72;29.68;29.52;28.71;23.71;0.64
77638;SPS30;66802;52.574;14.398;2023-09-30T05:57:32;5.89;5.60;5.02;4.07;32.53;32.48;32.33;31.54;26.23;0.62
77638;SPS30;66802;52.574;14.398;2023-09-30T06:00:05;5.81;5.56;5.08;4.23;33.82;33.78;33.65;32.97;27.66;0.60
77638;SPS30;66802;52.574;14.398;2023-09-30T06:02:53;5.61;5.38;4.92;4.11;32.85;32.82;32.69;32.04;26.91;0.58
77638;SPS30;66802;52.574;14.398;2023-09-30T06:05:19;5.23;5.02;4.61;3.88;31.03;30.99;30.88;30.30;25.50;0.57
77638;SPS30;66802;52.574;14.398;2023-09-30T06:07:48;5.88;5.63;5.12;4.25;33.97;33.93;33.80;33.09;27.73;0.59
77638;SPS30;66802;52.574;14.398;2023-09-30T06:10:14;5.85;5.56;4.99;4.06;32.41;32.37;32.22;31.44;26.16;0.62
77638;SPS30;66802;52.574;14.398;2023-09-30T06:12:46;5.84;5.55;4.97;4.03;32.21;32.16;32.01;31.22;25.96;0.61
77638;SPS30;66802;52.574;14.398;2023-09-30T06:15:15;5.72;5.48;4.99;4.15;33.15;33.11;32.98;32.30;27.08;0.60
77638;SPS30;66802;52.574;14.398;2023-09-30T06:17:45;5.99;5.71;5.16;4.24;33.91;33.87;33.72;32.96;27.53;0.61
77638;SPS30;66802;52.574;14.398;2023-09-30T06:20:11;5.82;5.53;4.93;3.98;31.79;31.74;31.58;30.78;25.54;0.62
77638;SPS30;66802;52.574;14.398;2023-09-30T06:22:41;6.23;5.89;5.23;4.17;33.33;33.28;33.10;32.21;26.64;0.63
77638;SPS30;66802;52.574;14.398;2023-09-30T06:25:08;6.00;5.67;5.00;3.96;31.65;31.60;31.42;30.54;25.19;0.64
77638;SPS30;66802;52.574;14.398;2023-09-30T06:27:34;6.23;5.91;5.25;4.21;33.62;33.57;33.40;32.52;26.93;0.64
77638;SPS30;66802;52.574;14.398;2023-09-30T06:30:00;6.19;5.87;5.21;4.17;33.29;33.24;33.06;32.18;26.63;0.65
77638;SPS30;66802;52.574;14.398;2023-09-30T06:32:25;6.00;5.68;5.04;4.02;32.13;32.08;31.92;31.06;25.69;0.65
77638;SPS30;66802;52.574;14.398;2023-09-30T06:34:51;5.65;5.42;4.94;4.12;32.89;32.85;32.72;32.05;26.89;0.60
77638;SPS30;66802;52.574;14.398;2023-09-30T06:37:18;5.94;5.67;5.14;4.24;33.84;33.80;33.66;32.92;27.52;0.62
77638;SPS30;66802;52.574;14.398;2023-09-30T06:39:43;6.17;5.87;5.29;4.32;34.49;34.45;34.29;33.49;27.91;0.63
77638;SPS30;66802;52.574;14.398;2023-09-30T06:42:09;6.28;5.98;5.38;4.38;35.04;34.99;34.83;34.01;28.33;0.63
77638;SPS30;66802;52.574;14.398;2023-09-30T06:44:34;6.25;5.92;5.25;4.19;33.49;33.43;33.26;32.37;26.77;0.66
77638;SPS30;66802;52.574;14.398;2023-09-30T06:47:00;5.83;5.53;4.95;4.00;31.93;31.89;31.73;30.94;25.69;0.63
77638;SPS30;66802;52.574;14.398;2023-09-30T06:49:25;5.82;5.57;5.08;4.23;33.76;33.72;33.59;32.89;27.58;0.61
77638;SPS30;66802;52.574;14.398;2023-09-30T06:51:51;6.49;6.19;5.57;4.55;36.36;36.31;36.15;35.31;29.43;0.63
77638;SPS30;66802;52.574;14.398;2023-09-30T06:54:17;5.41;5.17;4.69;3.89;31.05;31.01;30.88;30.22;25.30;0.60
77638;SPS30;66802;52.574;14.398;2023-09-30T06:56:42;6.12;5.83;5.26;4.31;34.43;34.38;34.23;33.44;27.90;0.62
77638;SPS30;66802;52.574;14.398;2023-09-30T06:59:08;6.15;5.82;5.16;4.12;32.93;32.87;32.70;31.82;26.32;0.65
77638;SPS30;66802;52.574;14.398;2023-09-30T07:01:33;6.01;5.70;5.09;4.10;32.75;32.70;32.54;31.71;26.31;0.63
77638;SPS30;66802;52.574;14.398;2023-09-30T07:03:59;5.75;5.47;4.91;4.00;31.96;31.92;31.77;31.01;25.82;0.63
77638;SPS30;66802;52.574;14.398;2023-09-30T07:06:25;6.25;5.93;5.28;4.25;33.93;33.88;33.71;32.84;27.22;0.63
77638;SPS30;66802;52.574;14.398;2023-09-30T07:08:51;6.35;6.02;5.37;4.32;34.50;34.45;34.28;33.39;27.69;0.64
77638;SPS30;66802;52.574;14.398;2023-09-30T07:11:18;6.08;5.82;5.32;4.44;35.47;35.43;35.29;34.58;29.03;0.61
77638;SPS30;66802;52.574;14.398;2023-09-30T07:13:52;5.73;5.49;5.01;4.18;33.41;33.37;33.25;32.58;27.34;0.60
77638;SPS30;66802;52.574;14.398;2023-09-30T07:16:17;5.80;5.53;4.99;4.09;32.67;32.63;32.49;31.75;26.49;0.60
77638;SPS30;66802;52.574;14.398;2023-09-30T07:18:43;5.63;5.34;4.77;3.84;30.66;30.62;30.47;29.69;24.63;0.61
77638;SPS30;66802;52.574;14.398;2023-09-30T07:21:08;6.41;6.09;5.46;4.42;35.35;35.30;35.13;34.27;28.49;0.61
77638;SPS30;66802;52.574;14.398;2023-09-30T07:23:34;6.07;5.79;5.23;4.29;34.24;34.20;34.05;33.27;27.77;0.61
77638;SPS30;66802;52.574;14.398;2023-09-30T07:25:59;5.67;5.44;4.97;4.17;33.29;33.26;33.13;32.48;27.29;0.60
77638;SPS30;66802;52.574;14.398;2023-09-30T07:28:25;5.62;5.40;4.95;4.17;33.28;33.24;33.12;32.49;27.33;0.59
77638;SPS30;66802;52.574;14.398;2023-09-30T07:30:50;5.39;5.19;4.77;4.03;32.23;32.20;32.08;31.50;26.54;0.59
77638;SPS30;66802;52.574;14.398;2023-09-30T07:33:16;5.81;5.55;5.04;4.17;33.28;33.24;33.10;32.39;27.11;0.60
77638;SPS30;66802;52.574;14.398;2023-09-30T07:35:41;5.62;5.36;4.83;3.97;31.68;31.64;31.50;30.79;25.70;0.60
77638;SPS30;66802;52.574;14.398;2023-09-30T07:38:07;5.55;5.30;4.82;3.99;31.91;31.87;31.74;31.07;26.02;0.60
77638;SPS30;66802;52.574;14.398;2023-09-30T07:40:33;5.59;5.35;4.88;4.05;32.40;32.36;32.23;31.56;26.46;0.59
77638;SPS30;66802;52.574;14.398;2023-09-30T07:42:58;5.75;5.53;5.10;4.32;34.48;34.44;34.32;33.70;28.41;0.59
77638;SPS30;66802;52.574;14.398;2023-09-30T07:45:24;5.43;5.23;4.84;4.12;32.90;32.86;32.76;32.19;27.18;0.59
77638;SPS30;66802;52.574;14.398;2023-09-30T07:47:49;5.58;5.35;4.88;4.06;32.47;32.43;32.30;31.64;26.54;0.60
77638;SPS30;66802;52.574;14.398;2023-09-30T07:50:16;5.58;5.33;4.82;3.97;31.71;31.67;31.53;30.83;25.76;0.62
77638;SPS30;66802;52.574;14.398;2023-09-30T07:52:42;5.58;5.32;4.80;3.93;31.39;31.35;31.21;30.49;25.43;0.62
77638;SPS30;66802;52.574;14.398;2023-09-30T07:55:09;5.31;5.10;4.69;3.96;31.61;31.57;31.46;30.88;26.00;0.60
77638;SPS30;66802;52.574;14.398;2023-09-30T07:57:34;5.19;4.94;4.45;3.63;28.98;28.94;28.81;28.13;23.43;0.63
77638;SPS30;66802;52.574;14.398;2023-09-30T08:00:01;5.59;5.29;4.68;3.72;29.71;29.66;29.50;28.69;23.69;0.66
77638;SPS30;66802;52.574;14.398;2023-09-30T08:02:28;5.96;5.61;4.90;3.81;30.44;30.39;30.20;29.27;23.99;0.68
77638;SPS30;66802;52.574;14.398;2023-09-30T08:04:58;6.67;6.25;5.39;4.11;32.85;32.79;32.57;31.46;25.59;0.69
77638;SPS30;66802;52.574;14.398;2023-09-30T08:07:25;6.04;5.65;4.87;3.70;29.59;29.54;29.33;28.32;23.02;0.68
77638;SPS30;66802;52.574;14.398;2023-09-30T08:09:50;6.52;6.09;5.24;3.97;31.70;31.64;31.42;30.31;24.60;0.66
77638;SPS30;66802;52.574;14.398;2023-09-30T08:12:16;5.79;5.44;4.75;3.69;29.46;29.40;29.22;28.31;23.19;0.65
77638;SPS30;66802;52.574;14.398;2023-09-30T08:14:41;5.73;5.41;4.78;3.78;30.19;30.14;29.98;29.13;24.01;0.64
77638;SPS30;66802;52.574;14.398;2023-09-30T08:17:09;6.33;5.94;5.17;3.99;31.92;31.86;31.66;30.65;25.06;0.66
77638;SPS30;66802;52.574;14.398;2023-09-30T08:19:35;5.79;5.47;4.82;3.80;30.36;30.31;30.14;29.28;24.12;0.66
77638;SPS30;66802;52.574;14.398;2023-09-30T08:22:01;5.51;5.19;4.55;3.57;28.50;28.46;28.29;27.45;22.55;0.66
77638;SPS30;66802;52.574;14.398;2023-09-30T08:24:28;5.80;5.43;4.69;3.57;28.55;28.49;28.30;27.33;22.23;0.66
77638;SPS30;66802;52.574;14.398;2023-09-30T08:26:54;5.95;5.56;4.78;3.61;28.88;28.82;28.62;27.60;22.39;0.67
77638;SPS30;66802;52.574;14.398;2023-09-30T08:29:21;5.32;4.98;4.31;3.30;26.41;26.36;26.19;25.31;20.63;0.66
77638;SPS30;66802;52.574;14.398;2023-09-30T08:31:47;5.35;5.05;4.47;3.54;28.33;28.28;28.13;27.35;22.57;0.65
77638;SPS30;66802;52.574;14.398;2023-09-30T08:34:15;5.37;5.03;4.36;3.33;26.66;26.60;26.43;25.55;20.82;0.67
77638;SPS30;66802;52.574;14.398;2023-09-30T08:36:42;5.83;5.47;4.74;3.63;29.06;29.00;28.81;27.86;22.72;0.67
77638;SPS30;66802;52.574;14.398;2023-09-30T08:39:07;6.29;5.86;5.01;3.75;29.99;29.92;29.70;28.60;23.12;0.69
77638;SPS30;66802;52.574;14.398;2023-09-30T08:41:35;6.20;5.75;4.86;3.56;28.45;28.39;28.16;27.01;21.64;0.69
77638;SPS30;66802;52.574;14.398;2023-09-30T08:44:02;6.21;5.79;4.94;3.69;29.49;29.42;29.20;28.11;22.70;0.68
77638;SPS30;66802;52.574;14.398;2023-09-30T08:46:32;5.85;5.44;4.62;3.42;27.32;27.26;27.05;25.99;20.91;0.69
77638;SPS30;66802;52.574;14.398;2023-09-30T08:49:02;5.55;5.19;4.48;3.40;27.20;27.14;26.95;26.02;21.15;0.67
77638;SPS30;66802;52.574;14.398;2023-09-30T08:51:29;5.12;4.80;4.16;3.19;25.46;25.41;25.25;24.41;19.90;0.66
77638;SPS30;66802;52.574;14.398;2023-09-30T08:53:57;5.56;5.20;4.49;3.42;27.37;27.32;27.13;26.20;21.32;0.66
77638;SPS30;66802;52.574;14.398;2023-09-30T08:56:27;5.76;5.41;4.71;3.65;29.19;29.14;28.96;28.04;22.95;0.65
77638;SPS30;66802;52.574;14.398;2023-09-30T08:58:55;5.29;5.00;4.43;3.53;28.22;28.17;28.02;27.26;22.53;0.64
77638;SPS30;66802;52.574;14.398;2023-09-30T09:01:24;5.25;4.96;4.39;3.49;27.89;27.84;27.69;26.93;22.24;0.65
77638;SPS30;66802;52.574;14.398;2023-09-30T09:03:50;6.11;5.72;4.94;3.77;30.17;30.12;29.91;28.90;23.53;0.67
77638;SPS30;66802;52.574;14.398;2023-09-30T09:06:21;5.74;5.37;4.61;3.49;27.89;27.83;27.63;26.66;21.62;0.67
77638;SPS30;66802;52.574;14.398;2023-09-30T09:08:47;6.52;6.10;5.24;3.96;31.66;31.59;31.37;30.26;24.55;0.65
77638;SPS30;66802;52.574;14.398;2023-09-30T09:11:13;5.83;5.46;4.72;3.61;28.85;28.80;28.61;27.64;22.52;0.66
77638;SPS30;66802;52.574;14.398;2023-09-30T09:13:49;6.33;5.94;5.16;3.97;31.77;31.71;31.51;30.49;24.90;0.66
77638;SPS30;66802;52.574;14.398;2023-09-30T09:16:18;6.02;5.60;4.78;3.57;28.52;28.45;28.24;27.18;21.94;0.68
77638;SPS30;66802;52.574;14.398;2023-09-30T09:18:44;6.00;5.60;4.80;3.61;28.83;28.77;28.56;27.53;22.28;0.66
77638;SPS30;66802;52.574;14.398;2023-09-30T09:21:16;6.17;5.74;4.90;3.64;29.12;29.05;28.83;27.73;22.36;0.65
77638;SPS30;66802;52.574;14.398;2023-09-30T09:23:45;5.78;5.41;4.67;3.56;28.49;28.44;28.24;27.28;22.20;0.64
77638;SPS30;66802;52.574;14.398;2023-09-30T09:26:25;6.06;5.71;5.00;3.92;31.30;31.25;31.06;30.13;24.75;0.64
77638;SPS30;66802;52.574;14.398;2023-09-30T09:29:00;5.50;5.19;4.57;3.61;28.81;28.77;28.60;27.78;22.88;0.63
77638;SPS30;66802;52.574;14.398;2023-09-30T09:31:32;5.55;5.20;4.49;3.42;27.31;27.26;27.07;26.14;21.27;0.65
77638;SPS30;66802;52.574;14.398;2023-09-30T09:34:02;6.27;5.83;4.94;3.64;29.08;29.01;28.78;27.64;22.20;0.69
77638;SPS30;66802;52.574;14.398;2023-09-30T09:36:38;5.84;5.41;4.55;3.30;26.39;26.32;26.10;25.00;19.96;0.69
77638;SPS30;66802;52.574;14.398;2023-09-30T09:39:08;5.49;5.11;4.35;3.24;25.90;25.85;25.65;24.68;19.90;0.68
77638;SPS30;66802;52.574;14.398;2023-09-30T09:41:48;5.16;4.83;4.16;3.16;25.28;25.23;25.06;24.19;19.66;0.67
77638;SPS30;66802;52.574;14.398;2023-09-30T09:44:16;6.09;5.68;4.85;3.63;29.02;28.95;28.74;27.67;22.36;0.68
77638;SPS30;66802;52.574;14.398;2023-09-30T09:46:44;5.80;5.40;4.61;3.43;27.46;27.40;27.19;26.16;21.11;0.68
77638;SPS30;66802;52.574;14.398;2023-09-30T09:49:12;5.42;5.03;4.26;3.14;25.08;25.02;24.82;23.83;19.13;0.70
77638;SPS30;66802;52.574;14.398;2023-09-30T09:51:38;5.91;5.51;4.71;3.53;28.21;28.15;27.94;26.91;21.75;0.68
77638;SPS30;66802;52.574;14.398;2023-09-30T09:54:04;5.69;5.29;4.50;3.34;26.67;26.61;26.40;25.38;20.44;0.69
77638;SPS30;66802;52.574;14.398;2023-09-30T09:56:33;5.65;5.26;4.47;3.30;26.40;26.34;26.14;25.12;20.21;0.68
77638;SPS30;66802;52.574;14.398;2023-09-30T09:59:01;5.69;5.27;4.42;3.20;25.60;25.54;25.32;24.24;19.34;0.70
77638;SPS30;66802;52.574;14.398;2023-09-30T10:01:30;6.20;5.72;4.78;3.42;27.36;27.29;27.04;25.84;20.52;0.70
77638;SPS30;66802;52.574;14.398;2023-09-30T10:03:56;5.43;5.04;4.26;3.12;24.97;24.91;24.71;23.71;19.01;0.69
77638;SPS30;66802;52.574;14.398;2023-09-30T10:06:22;5.00;4.66;3.99;2.98;23.84;23.79;23.62;22.74;18.38;0.68
77638;SPS30;66802;52.574;14.398;2023-09-30T10:08:49;5.74;5.31;4.45;3.20;25.62;25.56;25.33;24.23;19.29;0.71
77638;SPS30;66802;52.574;14.398;2023-09-30T10:11:17;5.41;5.01;4.20;3.04;24.28;24.23;24.02;22.99;18.32;0.70
77638;SPS30;66802;52.574;14.398;2023-09-30T10:13:51;5.36;4.97;4.19;3.05;24.42;24.36;24.16;23.16;18.54;0.69
77638;SPS30;66802;52.574;14.398;2023-09-30T10:19:08;5.65;5.19;4.27;2.97;23.73;23.66;23.43;22.26;17.46;0.72
77638;SPS30;66802;52.574;14.398;2023-09-30T10:21:38;5.48;5.02;4.11;2.82;22.55;22.48;22.24;21.09;16.45;0.72
77638;SPS30;66802;52.574;14.398;2023-09-30T10:35:18;5.32;4.84;3.89;2.56;20.50;20.44;20.19;18.99;14.54;0.73
77638;SPS30;66802;52.574;14.398;2023-09-30T10:40:46;5.66;5.15;4.12;2.70;21.62;21.54;21.28;20.00;15.27;0.74
77638;SPS30;66802;52.574;14.398;2023-09-30T10:43:28;5.63;5.10;4.05;2.61;20.89;20.81;20.54;19.23;14.56;0.76
77638;SPS30;66802;52.574;14.398;2023-09-30T10:45:57;4.98;4.54;3.67;2.46;19.66;19.60;19.38;18.28;14.10;0.74
77638;SPS30;66802;52.574;14.398;2023-09-30T10:51:14;5.26;4.81;3.90;2.63;21.00;20.94;20.70;19.56;15.13;0.76
77638;SPS30;66802;52.574;14.398;2023-09-30T10:56:22;5.62;5.10;4.05;2.61;20.91;20.83;20.56;19.26;14.58;0.79
77638;SPS30;66802;52.574;14.398;2023-09-30T10:58:50;5.80;5.23;4.10;2.57;20.57;20.49;20.20;18.80;14.02;0.79
77638;SPS30;66802;52.574;14.398;2023-09-30T11:01:19;5.37;4.83;3.77;2.32;18.59;18.51;18.24;16.92;12.51;0.78
77638;SPS30;66802;52.574;14.398;2023-09-30T11:03:46;5.27;4.76;3.73;2.34;18.71;18.64;18.37;17.10;12.75;0.78
77638;SPS30;66802;52.574;14.398;2023-09-30T11:06:17;4.87;4.42;3.53;2.30;18.37;18.30;18.07;16.96;12.90;0.76
77638;SPS30;66802;52.574;14.398;2023-09-30T11:08:55;4.79;4.35;3.48;2.27;18.20;18.14;17.92;16.83;12.83;0.77
77638;SPS30;66802;52.574;14.398;2023-09-30T11:11:42;4.73;4.30;3.45;2.26;18.11;18.05;17.83;16.76;12.81;0.77
77638;SPS30;66802;52.574;14.398;2023-09-30T11:14:30;4.90;4.46;3.58;2.35;18.84;18.77;18.55;17.44;13.34;0.76
77638;SPS30;66802;52.574;14.398;2023-09-30T11:16:57;5.05;4.59;3.68;2.43;19.42;19.36;19.12;17.98;13.76;0.75
77638;SPS30;66802;52.574;14.398;2023-09-30T11:19:27;4.91;4.48;3.62;2.42;19.34;19.27;19.05;17.97;13.85;0.76
77638;SPS30;66802;52.574;14.398;2023-09-30T11:22:00;4.81;4.39;3.56;2.41;19.26;19.20;18.99;17.95;13.90;0.75
77638;SPS30;66802;52.574;14.398;2023-09-30T11:24:26;4.37;3.98;3.19;2.10;16.84;16.78;16.58;15.59;11.94;0.75
77638;SPS30;66802;52.574;14.398;2023-09-30T11:26:54;4.78;4.34;3.47;2.28;18.23;18.17;17.95;16.86;12.88;0.76
77638;SPS30;66802;52.574;14.398;2023-09-30T11:29:23;4.63;4.20;3.33;2.14;17.10;17.04;16.82;15.73;11.89;0.76
77638;SPS30;66802;52.574;14.398;2023-09-30T11:31:50;4.24;3.83;3.01;1.89;15.15;15.09;14.88;13.86;10.36;0.78
77638;SPS30;66802;52.574;14.398;2023-09-30T11:34:18;4.83;4.39;3.52;2.32;18.55;18.49;18.26;17.17;13.13;0.74
77638;SPS30;66802;52.574;14.398;2023-09-30T11:36:48;4.29;3.92;3.17;2.13;17.04;16.99;16.79;15.86;12.25;0.73
77638;SPS30;66802;52.574;14.398;2023-09-30T11:39:24;4.13;3.79;3.10;2.13;17.01;16.96;16.79;15.92;12.41;0.72
77638;SPS30;66802;52.574;14.398;2023-09-30T11:41:52;3.96;3.63;2.98;2.06;16.47;16.42;16.25;15.43;12.06;0.72
77638;SPS30;66802;52.574;14.398;2023-09-30T11:44:20;3.91;3.58;2.92;1.99;15.91;15.86;15.69;14.86;11.56;0.74
77638;SPS30;66802;52.574;14.398;2023-09-30T11:46:50;4.38;3.99;3.22;2.15;17.22;17.16;16.96;16.00;12.33;0.76
77638;SPS30;66802;52.574;14.398;2023-09-30T11:51:55;4.41;4.00;3.18;2.06;16.48;16.42;16.21;15.19;11.53;0.77
77638;SPS30;66802;52.574;14.398;2023-09-30T11:54:28;4.19;3.81;3.04;1.98;15.86;15.81;15.61;14.65;11.16;0.75
77638;SPS30;66802;52.574;14.398;2023-09-30T11:56:58;4.23;3.86;3.13;2.10;16.83;16.78;16.59;15.67;12.11;0.74
77638;SPS30;66802;52.574;14.398;2023-09-30T11:59:25;4.09;3.74;3.04;2.06;16.51;16.46;16.28;15.40;11.95;0.75
77638;SPS30;66802;52.574;14.398;2023-09-30T12:01:51;4.55;4.15;3.35;2.24;17.96;17.90;17.69;16.70;12.87;0.75
77638;SPS30;66802;52.574;14.398;2023-09-30T12:04:19;4.81;4.35;3.45;2.21;17.65;17.58;17.35;16.22;12.24;0.77
77638;SPS30;66802;52.574;14.398;2023-09-30T12:06:45;4.30;3.92;3.17;2.11;16.91;16.85;16.66;15.71;12.10;0.74
77638;SPS30;66802;52.574;14.398;2023-09-30T12:09:14;4.06;3.72;3.04;2.08;16.68;16.63;16.45;15.60;12.16;0.74
77638;SPS30;66802;52.574;14.398;2023-09-30T12:11:42;3.86;3.53;2.88;1.96;15.71;15.66;15.50;14.68;11.42;0.74
77638;SPS30;66802;52.574;14.398;2023-09-30T12:14:11;4.35;3.98;3.25;2.23;17.81;17.75;17.57;16.65;12.97;0.74
77638;SPS30;66802;52.574;14.398;2023-09-30T12:16:38;4.41;4.03;3.28;2.22;17.78;17.73;17.53;16.59;12.87;0.74
77638;SPS30;66802;52.574;14.398;2023-09-30T12:19:04;3.94;3.59;2.90;1.93;15.46;15.41;15.23;14.36;11.05;0.74
77638;SPS30;66802;52.574;14.398;2023-09-30T12:21:31;5.86;5.26;4.09;2.50;20.00;19.91;19.61;18.16;13.36;0.81
77638;SPS30;66802;52.574;14.398;2023-09-30T12:23:57;5.72;5.13;3.93;2.33;18.67;18.58;18.28;16.81;12.15;0.82
77638;SPS30;66802;52.574;14.398;2023-09-30T12:26:22;5.01;4.50;3.47;2.08;16.66;16.59;16.32;15.05;10.96;0.81
77638;SPS30;66802;52.574;14.398;2023-09-30T12:28:49;4.97;4.48;3.50;2.17;17.33;17.26;17.01;15.80;11.71;0.80
77638;SPS30;66802;52.574;14.398;2023-09-30T12:31:14;3.89;3.52;2.79;1.79;14.33;14.28;14.09;13.18;9.96;0.79
77638;SPS30;66802;52.574;14.398;2023-09-30T12:33:40;4.44;4.08;3.35;2.32;18.55;18.50;18.31;17.39;13.62;0.73